sensor_id;sensor_type;location;lat;lon;timestamp;temperature;humidity
15705;DHT22;7952;48.396;12.806;2023-07-13T00:00:26;22.20;52.20
15705;DHT22;7952;48.396;12.806;2023-07-13T00:02:52;22.20;52.20
15705;DHT22;7952;48.396;12.806;2023-07-13T00:05:20;22.20;52.20
15705;DHT22;7952;48.396;12.806;2023-07-13T00:07:46;22.20;52.20
15705;DHT22;7952;48.396;12.806;2023-07-13T00:10:12;22.20;52.30
15705;DHT22;7952;48.396;12.806;2023-07-13T00:12:38;22.20;52.30
15705;DHT22;7952;48.396;12.806;2023-07-13T00:15:07;22.20;52.30
15705;DHT22;7952;48.396;12.806;2023-07-13T00:17:33;22.20;52.30
15705;DHT22;7952;48.396;12.806;2023-07-13T00:19:59;22.20;52.30
15705;DHT22;7952;48.396;12.806;2023-07-13T00:22:25;22.20;52.30
15705;DHT22;7952;48.396;12.806;2023-07-13T00:24:54;22.20;52.30
15705;DHT22;7952;48.396;12.806;2023-07-13T00:27:23;22.10;52.30
15705;DHT22;7952;48.396;12.806;2023-07-13T00:29:51;22.10;52.30
15705;DHT22;7952;48.396;12.806;2023-07-13T00:32:17;22.10;52.30
15705;DHT22;7952;48.396;12.806;2023-07-13T00:34:42;22.10;52.30
15705;DHT22;7952;48.396;12.806;2023-07-13T00:37:09;22.10;52.30
15705;DHT22;7952;48.396;12.806;2023-07-13T00:39:35;22.20;52.40
15705;DHT22;7952;48.396;12.806;2023-07-13T00:42:02;22.20;52.40
15705;DHT22;7952;48.396;12.806;2023-07-13T00:44:28;22.10;52.30
15705;DHT22;7952;48.396;12.806;2023-07-13T00:46:54;22.20;52.30
15705;DHT22;7952;48.396;12.806;2023-07-13T00:49:23;22.20;52.40
15705;DHT22;7952;48.396;12.806;2023-07-13T00:51:55;22.10;52.30
15705;DHT22;7952;48.396;12.806;2023-07-13T00:54:26;22.10;52.40
15705;DHT22;7952;48.396;12.806;2023-07-13T00:56:56;22.10;52.40
15705;DHT22;7952;48.396;12.806;2023-07-13T00:59:24;22.10;52.40
15705;DHT22;7952;48.396;12.806;2023-07-13T01:01:50;22.10;52.40
15705;DHT22;7952;48.396;12.806;2023-07-13T01:04:16;22.10;52.40
15705;DHT22;7952;48.396;12.806;2023-07-13T01:06:42;22.10;52.40
15705;DHT22;7952;48.396;12.806;2023-07-13T01:09:10;22.10;52.40
15705;DHT22;7952;48.396;12.806;2023-07-13T01:11:37;22.20;52.50
15705;DHT22;7952;48.396;12.806;2023-07-13T01:14:03;22.20;52.50
15705;DHT22;7952;48.396;12.806;2023-07-13T01:16:32;22.10;52.40
15705;DHT22;7952;48.396;12.806;2023-07-13T01:18:59;22.10;52.40
15705;DHT22;7952;48.396;12.806;2023-07-13T01:21:27;22.20;52.50
15705;DHT22;7952;48.396;12.806;2023-07-13T01:23:53;22.10;52.40
15705;DHT22;7952;48.396;12.806;2023-07-13T01:26:19;22.10;52.50
15705;DHT22;7952;48.396;12.806;2023-07-13T01:28:45;22.20;52.50
15705;DHT22;7952;48.396;12.806;2023-07-13T01:31:11;22.20;52.50
15705;DHT22;7952;48.396;12.806;2023-07-13T01:33:39;22.20;52.50
15705;DHT22;7952;48.396;12.806;2023-07-13T01:36:10;22.20;53.10
15705;DHT22;7952;48.396;12.806;2023-07-13T01:38:36;22.20;52.50
15705;DHT22;7952;48.396;12.806;2023-07-13T01:41:02;22.20;52.50
15705;DHT22;7952;48.396;12.806;2023-07-13T01:43:28;22.20;52.50
15705;DHT22;7952;48.396;12.806;2023-07-13T01:45:54;22.20;52.50
15705;DHT22;7952;48.396;12.806;2023-07-13T01:48:20;22.20;52.50
15705;DHT22;7952;48.396;12.806;2023-07-13T01:50:48;22.20;52.50
15705;DHT22;7952;48.396;12.806;2023-07-13T01:53:14;22.20;52.50
15705;DHT22;7952;48.396;12.806;2023-07-13T01:55:41;22.20;52.50
15705;DHT22;7952;48.396;12.806;2023-07-13T01:58:07;22.10;52.50
15705;DHT22;7952;48.396;12.806;2023-07-13T02:00:32;22.10;52.50
15705;DHT22;7952;48.396;12.806;2023-07-13T02:02:58;22.10;52.50
15705;DHT22;7952;48.396;12.806;2023-07-13T02:05:24;22.10;52.50
15705;DHT22;7952;48.396;12.806;2023-07-13T02:07:50;22.10;52.50
15705;DHT22;7952;48.396;12.806;2023-07-13T02:10:16;22.10;52.60
15705;DHT22;7952;48.396;12.806;2023-07-13T02:12:42;22.10;52.60
15705;DHT22;7952;48.396;12.806;2023-07-13T02:15:09;22.10;53.20
15705;DHT22;7952;48.396;12.806;2023-07-13T02:17:36;22.10;52.60
15705;DHT22;7952;48.396;12.806;2023-07-13T02:20:03;22.10;52.60
15705;DHT22;7952;48.396;12.806;2023-07-13T02:22:30;22.10;52.60
15705;DHT22;7952;48.396;12.806;2023-07-13T02:24:56;22.10;52.60
15705;DHT22;7952;48.396;12.806;2023-07-13T02:27:21;22.20;52.60
15705;DHT22;7952;48.396;12.806;2023-07-13T02:29:47;22.20;52.60
15705;DHT22;7952;48.396;12.806;2023-07-13T02:32:13;22.20;52.50
15705;DHT22;7952;48.396;12.806;2023-07-13T02:34:41;22.20;52.50
15705;DHT22;7952;48.396;12.806;2023-07-13T02:37:07;22.20;52.60
15705;DHT22;7952;48.396;12.806;2023-07-13T02:39:33;22.20;52.60
15705;DHT22;7952;48.396;12.806;2023-07-13T02:42:00;22.20;52.60
15705;DHT22;7952;48.396;12.806;2023-07-13T02:44:26;22.20;52.60
15705;DHT22;7952;48.396;12.806;2023-07-13T02:46:52;22.20;52.60
15705;DHT22;7952;48.396;12.806;2023-07-13T02:49:17;22.20;52.60
15705;DHT22;7952;48.396;12.806;2023-07-13T02:51:46;22.20;52.70
15705;DHT22;7952;48.396;12.806;2023-07-13T02:54:12;22.10;52.60
15705;DHT22;7952;48.396;12.806;2023-07-13T02:56:39;22.10;52.60
15705;DHT22;7952;48.396;12.806;2023-07-13T02:59:05;22.10;52.70
15705;DHT22;7952;48.396;12.806;2023-07-13T03:01:31;22.10;52.70
15705;DHT22;7952;48.396;12.806;2023-07-13T03:04:00;22.10;52.70
15705;DHT22;7952;48.396;12.806;2023-07-13T03:06:26;22.10;52.70
15705;DHT22;7952;48.396;12.806;2023-07-13T03:08:56;22.10;52.80
15705;DHT22;7952;48.396;12.806;2023-07-13T03:11:22;22.10;52.80
15705;DHT22;7952;48.396;12.806;2023-07-13T03:13:47;22.10;52.80
15705;DHT22;7952;48.396;12.806;2023-07-13T03:16:14;22.10;52.80
15705;DHT22;7952;48.396;12.806;2023-07-13T03:18:45;22.10;52.80
15705;DHT22;7952;48.396;12.806;2023-07-13T03:21:11;22.10;52.80
15705;DHT22;7952;48.396;12.806;2023-07-13T03:23:37;22.10;52.80
15705;DHT22;7952;48.396;12.806;2023-07-13T03:26:07;22.10;52.80
15705;DHT22;7952;48.396;12.806;2023-07-13T03:28:34;22.10;53.40
15705;DHT22;7952;48.396;12.806;2023-07-13T03:31:01;22.10;52.80
15705;DHT22;7952;48.396;12.806;2023-07-13T03:33:27;22.10;52.80
15705;DHT22;7952;48.396;12.806;2023-07-13T03:35:53;22.10;52.90
15705;DHT22;7952;48.396;12.806;2023-07-13T03:38:19;22.10;52.90
15705;DHT22;7952;48.396;12.806;2023-07-13T03:40:45;22.10;52.90
15705;DHT22;7952;48.396;12.806;2023-07-13T03:43:11;22.10;52.90
15705;DHT22;7952;48.396;12.806;2023-07-13T03:45:38;22.10;53.00
15705;DHT22;7952;48.396;12.806;2023-07-13T03:48:04;22.10;52.90
15705;DHT22;7952;48.396;12.806;2023-07-13T03:50:30;22.00;52.90
15705;DHT22;7952;48.396;12.806;2023-07-13T03:52:58;22.00;52.90
15705;DHT22;7952;48.396;12.806;2023-07-13T03:55:23;22.00;52.90
15705;DHT22;7952;48.396;12.806;2023-07-13T03:57:58;22.00;53.50
15705;DHT22;7952;48.396;12.806;2023-07-13T04:00:24;22.00;53.00
15705;DHT22;7952;48.396;12.806;2023-07-13T04:02:50;22.00;53.00
15705;DHT22;7952;48.396;12.806;2023-07-13T04:05:16;22.00;53.00
15705;DHT22;7952;48.396;12.806;2023-07-13T04:07:42;22.00;53.10
15705;DHT22;7952;48.396;12.806;2023-07-13T04:10:08;22.00;53.10
15705;DHT22;7952;48.396;12.806;2023-07-13T04:12:34;22.00;53.10
15705;DHT22;7952;48.396;12.806;2023-07-13T04:14:59;22.00;53.10
15705;DHT22;7952;48.396;12.806;2023-07-13T04:17:25;22.00;53.10
15705;DHT22;7952;48.396;12.806;2023-07-13T04:19:51;21.90;53.00
15705;DHT22;7952;48.396;12.806;2023-07-13T04:22:17;22.00;53.20
15705;DHT22;7952;48.396;12.806;2023-07-13T04:24:46;22.00;53.20
15705;DHT22;7952;48.396;12.806;2023-07-13T04:27:12;22.00;53.20
15705;DHT22;7952;48.396;12.806;2023-07-13T04:29:38;22.00;53.20
15705;DHT22;7952;48.396;12.806;2023-07-13T04:32:04;22.00;53.20
15705;DHT22;7952;48.396;12.806;2023-07-13T04:34:29;22.00;53.20
15705;DHT22;7952;48.396;12.806;2023-07-13T04:36:55;22.00;53.20
15705;DHT22;7952;48.396;12.806;2023-07-13T04:39:21;22.00;53.10
15705;DHT22;7952;48.396;12.806;2023-07-13T04:41:46;22.00;53.10
15705;DHT22;7952;48.396;12.806;2023-07-13T04:44:12;22.00;53.10
15705;DHT22;7952;48.396;12.806;2023-07-13T04:46:38;22.00;53.10
15705;DHT22;7952;48.396;12.806;2023-07-13T04:49:04;22.00;53.10
15705;DHT22;7952;48.396;12.806;2023-07-13T04:51:29;22.00;53.10
15705;DHT22;7952;48.396;12.806;2023-07-13T04:53:55;22.00;53.10
15705;DHT22;7952;48.396;12.806;2023-07-13T04:56:21;22.00;53.10
15705;DHT22;7952;48.396;12.806;2023-07-13T04:58:46;22.00;53.20
15705;DHT22;7952;48.396;12.806;2023-07-13T05:01:12;22.00;53.20
15705;DHT22;7952;48.396;12.806;2023-07-13T05:03:39;22.00;53.20
15705;DHT22;7952;48.396;12.806;2023-07-13T05:06:06;22.00;53.20
15705;DHT22;7952;48.396;12.806;2023-07-13T05:08:35;22.00;53.20
15705;DHT22;7952;48.396;12.806;2023-07-13T05:11:03;22.00;53.20
15705;DHT22;7952;48.396;12.806;2023-07-13T05:13:29;22.10;53.40
15705;DHT22;7952;48.396;12.806;2023-07-13T05:16:00;22.10;53.40
15705;DHT22;7952;48.396;12.806;2023-07-13T05:18:26;22.10;53.40
15705;DHT22;7952;48.396;12.806;2023-07-13T05:21:03;22.10;53.40
15705;DHT22;7952;48.396;12.806;2023-07-13T05:23:30;22.10;53.40
15705;DHT22;7952;48.396;12.806;2023-07-13T05:25:57;22.10;53.40
15705;DHT22;7952;48.396;12.806;2023-07-13T05:28:23;22.10;53.40
15705;DHT22;7952;48.396;12.806;2023-07-13T05:30:49;22.10;54.10
15705;DHT22;7952;48.396;12.806;2023-07-13T05:33:16;22.10;53.50
15705;DHT22;7952;48.396;12.806;2023-07-13T05:35:42;22.10;53.60
15705;DHT22;7952;48.396;12.806;2023-07-13T05:38:07;22.10;53.60
15705;DHT22;7952;48.396;12.806;2023-07-13T05:40:33;22.10;53.60
15705;DHT22;7952;48.396;12.806;2023-07-13T05:42:59;22.10;53.60
15705;DHT22;7952;48.396;12.806;2023-07-13T05:45:25;22.10;53.60
15705;DHT22;7952;48.396;12.806;2023-07-13T05:47:51;22.20;53.60
15705;DHT22;7952;48.396;12.806;2023-07-13T05:50:17;22.20;53.60
15705;DHT22;7952;48.396;12.806;2023-07-13T05:52:43;22.30;53.70
15705;DHT22;7952;48.396;12.806;2023-07-13T05:55:09;22.30;53.70
15705;DHT22;7952;48.396;12.806;2023-07-13T05:57:35;22.40;53.70
15705;DHT22;7952;48.396;12.806;2023-07-13T06:00:00;22.40;53.60
15705;DHT22;7952;48.396;12.806;2023-07-13T06:02:27;22.50;53.70
15705;DHT22;7952;48.396;12.806;2023-07-13T06:04:52;22.50;54.20
15705;DHT22;7952;48.396;12.806;2023-07-13T06:07:18;22.60;53.70
15705;DHT22;7952;48.396;12.806;2023-07-13T06:09:44;22.60;53.70
15705;DHT22;7952;48.396;12.806;2023-07-13T06:12:10;22.70;53.70
15705;DHT22;7952;48.396;12.806;2023-07-13T06:14:35;22.70;53.60
15705;DHT22;7952;48.396;12.806;2023-07-13T06:17:01;22.80;53.70
15705;DHT22;7952;48.396;12.806;2023-07-13T06:19:28;22.90;53.70
15705;DHT22;7952;48.396;12.806;2023-07-13T06:21:54;23.00;53.70
15705;DHT22;7952;48.396;12.806;2023-07-13T06:24:19;23.10;53.70
15705;DHT22;7952;48.396;12.806;2023-07-13T06:26:45;23.10;53.70
15705;DHT22;7952;48.396;12.806;2023-07-13T06:29:11;23.20;53.70
15705;DHT22;7952;48.396;12.806;2023-07-13T06:31:36;23.30;53.70
15705;DHT22;7952;48.396;12.806;2023-07-13T06:34:05;23.40;53.80
15705;DHT22;7952;48.396;12.806;2023-07-13T06:36:31;23.60;54.30
15705;DHT22;7952;48.396;12.806;2023-07-13T06:38:57;23.80;54.00
15705;DHT22;7952;48.396;12.806;2023-07-13T06:41:22;24.20;54.10
15705;DHT22;7952;48.396;12.806;2023-07-13T06:43:50;24.40;53.70
15705;DHT22;7952;48.396;12.806;2023-07-13T06:46:16;24.70;53.60
15705;DHT22;7952;48.396;12.806;2023-07-13T06:48:41;24.80;53.30
15705;DHT22;7952;48.396;12.806;2023-07-13T06:51:08;24.80;53.20
15705;DHT22;7952;48.396;12.806;2023-07-13T06:53:34;24.80;53.20
15705;DHT22;7952;48.396;12.806;2023-07-13T06:56:00;24.80;53.20
15705;DHT22;7952;48.396;12.806;2023-07-13T06:58:25;24.70;53.20
15705;DHT22;7952;48.396;12.806;2023-07-13T07:00:52;24.70;53.40
15705;DHT22;7952;48.396;12.806;2023-07-13T07:03:18;24.60;53.40
15705;DHT22;7952;48.396;12.806;2023-07-13T07:05:43;24.60;53.50
15705;DHT22;7952;48.396;12.806;2023-07-13T07:08:10;24.50;53.50
15705;DHT22;7952;48.396;12.806;2023-07-13T07:10:35;24.40;53.50
15705;DHT22;7952;48.396;12.806;2023-07-13T07:13:02;24.40;53.80
15705;DHT22;7952;48.396;12.806;2023-07-13T07:15:28;24.30;53.60
15705;DHT22;7952;48.396;12.806;2023-07-13T07:17:54;24.30;53.70
15705;DHT22;7952;48.396;12.806;2023-07-13T07:20:20;24.30;53.80
15705;DHT22;7952;48.396;12.806;2023-07-13T07:22:46;24.20;54.00
15705;DHT22;7952;48.396;12.806;2023-07-13T07:25:12;24.20;53.80
15705;DHT22;7952;48.396;12.806;2023-07-13T07:27:38;24.20;53.90
15705;DHT22;7952;48.396;12.806;2023-07-13T07:30:04;24.20;53.90
15705;DHT22;7952;48.396;12.806;2023-07-13T07:32:30;24.30;54.00
15705;DHT22;7952;48.396;12.806;2023-07-13T07:34:57;24.30;54.00
15705;DHT22;7952;48.396;12.806;2023-07-13T07:37:23;24.30;54.00
15705;DHT22;7952;48.396;12.806;2023-07-13T07:39:49;24.40;54.30
15705;DHT22;7952;48.396;12.806;2023-07-13T07:42:15;24.60;54.10
15705;DHT22;7952;48.396;12.806;2023-07-13T07:44:41;25.00;54.10
15705;DHT22;7952;48.396;12.806;2023-07-13T07:47:08;25.50;53.80
15705;DHT22;7952;48.396;12.806;2023-07-13T07:49:35;26.00;53.50
15705;DHT22;7952;48.396;12.806;2023-07-13T07:52:01;26.60;52.50
15705;DHT22;7952;48.396;12.806;2023-07-13T07:54:27;27.10;52.90
15705;DHT22;7952;48.396;12.806;2023-07-13T07:56:54;27.60;52.20
15705;DHT22;7952;48.396;12.806;2023-07-13T07:59:20;28.00;51.70
15705;DHT22;7952;48.396;12.806;2023-07-13T08:01:46;28.20;51.20
15705;DHT22;7952;48.396;12.806;2023-07-13T08:04:13;28.30;50.90
15705;DHT22;7952;48.396;12.806;2023-07-13T08:06:39;28.20;50.90
15705;DHT22;7952;48.396;12.806;2023-07-13T08:09:05;28.10;51.00
15705;DHT22;7952;48.396;12.806;2023-07-13T08:11:31;28.00;51.10
15705;DHT22;7952;48.396;12.806;2023-07-13T08:13:57;27.80;51.10
15705;DHT22;7952;48.396;12.806;2023-07-13T08:16:23;27.70;51.30
15705;DHT22;7952;48.396;12.806;2023-07-13T08:18:48;27.50;51.40
15705;DHT22;7952;48.396;12.806;2023-07-13T08:21:14;27.30;51.50
15705;DHT22;7952;48.396;12.806;2023-07-13T08:23:40;27.20;51.60
15705;DHT22;7952;48.396;12.806;2023-07-13T08:26:06;27.10;51.80
15705;DHT22;7952;48.396;12.806;2023-07-13T08:28:32;27.00;52.00
15705;DHT22;7952;48.396;12.806;2023-07-13T08:31:04;26.90;52.00
15705;DHT22;7952;48.396;12.806;2023-07-13T08:33:30;26.80;52.10
15705;DHT22;7952;48.396;12.806;2023-07-13T08:35:56;26.70;52.10
15705;DHT22;7952;48.396;12.806;2023-07-13T08:38:22;26.60;52.10
15705;DHT22;7952;48.396;12.806;2023-07-13T08:40:53;26.50;52.80
15705;DHT22;7952;48.396;12.806;2023-07-13T08:43:28;26.40;52.30
15705;DHT22;7952;48.396;12.806;2023-07-13T08:46:19;26.40;52.40
15705;DHT22;7952;48.396;12.806;2023-07-13T08:48:58;26.40;52.40
15705;DHT22;7952;48.396;12.806;2023-07-13T08:51:39;26.40;52.50
15705;DHT22;7952;48.396;12.806;2023-07-13T08:56:56;26.30;52.40
15705;DHT22;7952;48.396;12.806;2023-07-13T08:59:27;26.30;52.40
15705;DHT22;7952;48.396;12.806;2023-07-13T09:04:48;26.40;52.50
15705;DHT22;7952;48.396;12.806;2023-07-13T09:12:19;26.40;52.40
15705;DHT22;7952;48.396;12.806;2023-07-13T09:14:54;26.40;52.30
15705;DHT22;7952;48.396;12.806;2023-07-13T09:17:27;26.50;52.30
15705;DHT22;7952;48.396;12.806;2023-07-13T09:20:04;26.50;52.30
15705;DHT22;7952;48.396;12.806;2023-07-13T09:22:36;26.50;52.30
15705;DHT22;7952;48.396;12.806;2023-07-13T09:25:34;26.50;52.20
15705;DHT22;7952;48.396;12.806;2023-07-13T09:28:10;26.50;52.10
15705;DHT22;7952;48.396;12.806;2023-07-13T09:30:46;26.40;52.00
15705;DHT22;7952;48.396;12.806;2023-07-13T09:33:17;26.40;52.00
15705;DHT22;7952;48.396;12.806;2023-07-13T09:35:42;26.30;52.00
15705;DHT22;7952;48.396;12.806;2023-07-13T09:38:14;26.30;52.20
15705;DHT22;7952;48.396;12.806;2023-07-13T09:43:25;26.30;52.30
15705;DHT22;7952;48.396;12.806;2023-07-13T09:45:51;26.30;52.10
15705;DHT22;7952;48.396;12.806;2023-07-13T09:48:18;26.30;52.10
15705;DHT22;7952;48.396;12.806;2023-07-13T09:50:44;26.30;52.10
15705;DHT22;7952;48.396;12.806;2023-07-13T09:53:15;26.30;52.10
15705;DHT22;7952;48.396;12.806;2023-07-13T09:55:43;26.30;52.10
15705;DHT22;7952;48.396;12.806;2023-07-13T09:58:20;26.30;52.10
15705;DHT22;7952;48.396;12.806;2023-07-13T10:00:59;26.30;52.10
15705;DHT22;7952;48.396;12.806;2023-07-13T10:03:29;26.30;52.00
15705;DHT22;7952;48.396;12.806;2023-07-13T10:06:11;26.30;52.00
15705;DHT22;7952;48.396;12.806;2023-07-13T10:08:37;26.30;52.00
15705;DHT22;7952;48.396;12.806;2023-07-13T10:11:11;26.30;51.90
15705;DHT22;7952;48.396;12.806;2023-07-13T10:13:45;26.30;51.90
15705;DHT22;7952;48.396;12.806;2023-07-13T10:16:11;26.20;51.80
15705;DHT22;7952;48.396;12.806;2023-07-13T10:18:46;26.20;51.80
15705;DHT22;7952;48.396;12.806;2023-07-13T10:21:20;26.20;51.80
15705;DHT22;7952;48.396;12.806;2023-07-13T10:23:53;26.10;51.70
15705;DHT22;7952;48.396;12.806;2023-07-13T10:26:26;26.10;51.70
15705;DHT22;7952;48.396;12.806;2023-07-13T10:28:55;26.10;51.70
15705;DHT22;7952;48.396;12.806;2023-07-13T10:31:22;26.10;51.70
15705;DHT22;7952;48.396;12.806;2023-07-13T10:33:49;26.10;51.60
15705;DHT22;7952;48.396;12.806;2023-07-13T10:36:53;26.10;51.60
15705;DHT22;7952;48.396;12.806;2023-07-13T10:39:27;26.20;51.60
15705;DHT22;7952;48.396;12.806;2023-07-13T10:41:59;26.20;51.50
15705;DHT22;7952;48.396;12.806;2023-07-13T10:44:31;26.20;51.40
15705;DHT22;7952;48.396;12.806;2023-07-13T10:47:02;26.10;51.40
15705;DHT22;7952;48.396;12.806;2023-07-13T10:49:31;26.10;51.40
15705;DHT22;7952;48.396;12.806;2023-07-13T10:51:58;26.10;51.40
15705;DHT22;7952;48.396;12.806;2023-07-13T10:54:33;26.10;51.40
15705;DHT22;7952;48.396;12.806;2023-07-13T10:57:26;26.10;51.40
15705;DHT22;7952;48.396;12.806;2023-07-13T11:02:28;25.90;51.20
15705;DHT22;7952;48.396;12.806;2023-07-13T11:04:55;25.90;51.30
15705;DHT22;7952;48.396;12.806;2023-07-13T11:07:26;25.80;51.30
15705;DHT22;7952;48.396;12.806;2023-07-13T11:10:03;25.80;51.40
15705;DHT22;7952;48.396;12.806;2023-07-13T11:15:28;25.80;51.40
15705;DHT22;7952;48.396;12.806;2023-07-13T11:17:55;25.80;51.40
15705;DHT22;7952;48.396;12.806;2023-07-13T11:20:35;25.80;51.40
15705;DHT22;7952;48.396;12.806;2023-07-13T11:23:17;25.80;51.30
15705;DHT22;7952;48.396;12.806;2023-07-13T11:25:44;25.80;51.30
15705;DHT22;7952;48.396;12.806;2023-07-13T11:30:46;26.00;51.40
15705;DHT22;7952;48.396;12.806;2023-07-13T11:38:37;26.50;50.80
15705;DHT22;7952;48.396;12.806;2023-07-13T11:41:16;26.70;50.70
15705;DHT22;7952;48.396;12.806;2023-07-13T11:43:43;26.80;50.60
15705;DHT22;7952;48.396;12.806;2023-07-13T11:48:39;27.20;50.30
15705;DHT22;7952;48.396;12.806;2023-07-13T11:51:06;27.40;50.00
15705;DHT22;7952;48.396;12.806;2023-07-13T11:53:40;27.50;49.80
15705;DHT22;7952;48.396;12.806;2023-07-13T11:56:06;27.70;49.80
15705;DHT22;7952;48.396;12.806;2023-07-13T11:58:32;27.80;49.60
15705;DHT22;7952;48.396;12.806;2023-07-13T12:01:00;27.90;49.50
15705;DHT22;7952;48.396;12.806;2023-07-13T12:03:30;27.90;49.30
15705;DHT22;7952;48.396;12.806;2023-07-13T12:06:00;27.90;49.20
15705;DHT22;7952;48.396;12.806;2023-07-13T12:08:27;27.90;49.20
15705;DHT22;7952;48.396;12.806;2023-07-13T12:11:11;27.90;49.10
15705;DHT22;7952;48.396;12.806;2023-07-13T12:13:39;27.90;49.10
15705;DHT22;7952;48.396;12.806;2023-07-13T12:16:15;27.90;49.10
15705;DHT22;7952;48.396;12.806;2023-07-13T12:18:42;28.00;49.20
15705;DHT22;7952;48.396;12.806;2023-07-13T12:21:14;28.10;49.10
15705;DHT22;7952;48.396;12.806;2023-07-13T12:23:44;28.20;49.00
15705;DHT22;7952;48.396;12.806;2023-07-13T12:26:10;28.40;49.00
15705;DHT22;7952;48.396;12.806;2023-07-13T12:28:56;28.40;48.80
15705;DHT22;7952;48.396;12.806;2023-07-13T12:31:42;28.60;48.70
15705;DHT22;7952;48.396;12.806;2023-07-13T12:34:17;28.70;48.50
15705;DHT22;7952;48.396;12.806;2023-07-13T12:36:58;28.80;48.50
15705;DHT22;7952;48.396;12.806;2023-07-13T12:45:02;29.00;48.10
15705;DHT22;7952;48.396;12.806;2023-07-13T12:47:30;29.00;48.10
15705;DHT22;7952;48.396;12.806;2023-07-13T12:50:04;29.00;48.10
15705;DHT22;7952;48.396;12.806;2023-07-13T12:52:35;29.00;48.00
15705;DHT22;7952;48.396;12.806;2023-07-13T12:55:17;29.10;47.90
15705;DHT22;7952;48.396;12.806;2023-07-13T12:57:50;29.20;47.90
15705;DHT22;7952;48.396;12.806;2023-07-13T13:00:35;29.30;47.80
15705;DHT22;7952;48.396;12.806;2023-07-13T13:03:24;29.40;47.70
15705;DHT22;7952;48.396;12.806;2023-07-13T13:05:59;29.50;47.60
15705;DHT22;7952;48.396;12.806;2023-07-13T13:08:25;29.50;47.40
15705;DHT22;7952;48.396;12.806;2023-07-13T13:10:51;29.60;47.90
15705;DHT22;7952;48.396;12.806;2023-07-13T13:13:17;29.60;47.30
15705;DHT22;7952;48.396;12.806;2023-07-13T13:15:43;29.60;47.20
15705;DHT22;7952;48.396;12.806;2023-07-13T13:18:17;29.60;47.10
15705;DHT22;7952;48.396;12.806;2023-07-13T13:20:47;29.60;47.10
15705;DHT22;7952;48.396;12.806;2023-07-13T13:23:14;29.50;47.00
15705;DHT22;7952;48.396;12.806;2023-07-13T13:25:46;29.50;47.00
15705;DHT22;7952;48.396;12.806;2023-07-13T13:28:17;29.50;47.10
15705;DHT22;7952;48.396;12.806;2023-07-13T13:30:45;29.50;47.10
15705;DHT22;7952;48.396;12.806;2023-07-13T13:33:14;29.50;47.10
15705;DHT22;7952;48.396;12.806;2023-07-13T13:35:41;29.50;47.00
15705;DHT22;7952;48.396;12.806;2023-07-13T13:38:25;29.60;47.00
15705;DHT22;7952;48.396;12.806;2023-07-13T13:40:51;29.60;46.90
15705;DHT22;7952;48.396;12.806;2023-07-13T13:43:25;29.70;46.90
15705;DHT22;7952;48.396;12.806;2023-07-13T13:45:53;29.70;46.70
15705;DHT22;7952;48.396;12.806;2023-07-13T13:48:26;29.70;46.60
15705;DHT22;7952;48.396;12.806;2023-07-13T13:50:56;29.70;46.60
15705;DHT22;7952;48.396;12.806;2023-07-13T13:53:22;29.70;46.60
15705;DHT22;7952;48.396;12.806;2023-07-13T13:55:52;29.80;46.50
15705;DHT22;7952;48.396;12.806;2023-07-13T13:58:19;29.80;46.40
15705;DHT22;7952;48.396;12.806;2023-07-13T14:00:45;29.70;46.30
15705;DHT22;7952;48.396;12.806;2023-07-13T14:03:17;29.60;46.10
15705;DHT22;7952;48.396;12.806;2023-07-13T14:05:44;29.50;46.10
15705;DHT22;7952;48.396;12.806;2023-07-13T14:08:15;29.40;46.10
15705;DHT22;7952;48.396;12.806;2023-07-13T14:10:42;29.30;46.30
15705;DHT22;7952;48.396;12.806;2023-07-13T14:13:16;29.30;46.40
15705;DHT22;7952;48.396;12.806;2023-07-13T14:15:43;29.30;46.20
15705;DHT22;7952;48.396;12.806;2023-07-13T14:18:09;29.30;46.20
15705;DHT22;7952;48.396;12.806;2023-07-13T14:20:35;29.20;46.20
15705;DHT22;7952;48.396;12.806;2023-07-13T14:23:01;29.20;46.20
15705;DHT22;7952;48.396;12.806;2023-07-13T14:25:27;29.10;46.20
15705;DHT22;7952;48.396;12.806;2023-07-13T14:27:56;29.00;46.30
15705;DHT22;7952;48.396;12.806;2023-07-13T14:30:24;29.00;46.40
15705;DHT22;7952;48.396;12.806;2023-07-13T14:32:50;28.90;46.40
15705;DHT22;7952;48.396;12.806;2023-07-13T14:35:19;29.00;46.50
15705;DHT22;7952;48.396;12.806;2023-07-13T14:37:46;29.00;46.40
15705;DHT22;7952;48.396;12.806;2023-07-13T14:42:38;29.10;46.10
15705;DHT22;7952;48.396;12.806;2023-07-13T14:45:04;29.10;46.00
15705;DHT22;7952;48.396;12.806;2023-07-13T14:47:31;29.20;46.00
15705;DHT22;7952;48.396;12.806;2023-07-13T14:49:56;29.10;45.90
15705;DHT22;7952;48.396;12.806;2023-07-13T14:52:23;29.00;45.90
15705;DHT22;7952;48.396;12.806;2023-07-13T14:54:51;28.90;45.90
15705;DHT22;7952;48.396;12.806;2023-07-13T14:57:19;28.90;46.00
15705;DHT22;7952;48.396;12.806;2023-07-13T14:59:45;28.80;45.90
15705;DHT22;7952;48.396;12.806;2023-07-13T15:02:33;28.70;46.00
15705;DHT22;7952;48.396;12.806;2023-07-13T15:04:59;28.80;46.10
15705;DHT22;7952;48.396;12.806;2023-07-13T15:07:25;28.70;46.00
15705;DHT22;7952;48.396;12.806;2023-07-13T15:09:51;28.80;46.00
15705;DHT22;7952;48.396;12.806;2023-07-13T15:12:17;28.80;45.80
15705;DHT22;7952;48.396;12.806;2023-07-13T15:14:43;28.80;45.80
15705;DHT22;7952;48.396;12.806;2023-07-13T15:17:34;28.70;45.70
15705;DHT22;7952;48.396;12.806;2023-07-13T15:20:14;28.60;45.70
15705;DHT22;7952;48.396;12.806;2023-07-13T15:22:41;28.60;45.80
15705;DHT22;7952;48.396;12.806;2023-07-13T15:25:15;28.50;45.80
15705;DHT22;7952;48.396;12.806;2023-07-13T15:27:41;28.50;45.80
15705;DHT22;7952;48.396;12.806;2023-07-13T15:30:07;28.40;45.80
15705;DHT22;7952;48.396;12.806;2023-07-13T15:32:33;28.40;45.80
15705;DHT22;7952;48.396;12.806;2023-07-13T15:34:59;28.40;45.90
15705;DHT22;7952;48.396;12.806;2023-07-13T15:37:24;28.40;45.80
15705;DHT22;7952;48.396;12.806;2023-07-13T15:39:50;28.40;45.80
15705;DHT22;7952;48.396;12.806;2023-07-13T15:42:21;28.40;45.70
15705;DHT22;7952;48.396;12.806;2023-07-13T15:44:47;28.40;45.70
15705;DHT22;7952;48.396;12.806;2023-07-13T15:47:14;28.30;45.60
15705;DHT22;7952;48.396;12.806;2023-07-13T15:49:41;28.20;45.70
15705;DHT22;7952;48.396;12.806;2023-07-13T15:52:22;28.20;45.70
15705;DHT22;7952;48.396;12.806;2023-07-13T15:54:49;28.10;45.70
15705;DHT22;7952;48.396;12.806;2023-07-13T15:57:16;28.10;45.80
15705;DHT22;7952;48.396;12.806;2023-07-13T15:59:43;28.00;45.80
15705;DHT22;7952;48.396;12.806;2023-07-13T16:02:14;28.00;45.80
15705;DHT22;7952;48.396;12.806;2023-07-13T16:04:41;27.90;45.80
15705;DHT22;7952;48.396;12.806;2023-07-13T16:07:13;27.90;45.80
15705;DHT22;7952;48.396;12.806;2023-07-13T16:09:41;27.80;45.80
15705;DHT22;7952;48.396;12.806;2023-07-13T16:12:11;27.80;46.40
15705;DHT22;7952;48.396;12.806;2023-07-13T16:14:38;27.80;45.80